FFT4551 KMIA-KLAS
Flight info
| Callsign | FFT4551 |
|---|---|
| Flight time | N/A |
| Altitude | 32000 |
| Route | GLADZ4 BAGGS REMIS Y280 LEV J86 KEMPL/N0472F340 J86 INW HAHAA RKSTR4 |
| Aircraft | A21N/M-SDE2E3FGHIRWXY/LB1 |
Departure
| Time | 2026-05-05 01:21 |
|---|---|
| Airport | Miami International Airport (KMIA) |
Arrival
| Time | N/A |
|---|---|
| Airport | Harry Reid International Airport (KLAS) |
| Time | Latitude | Longitude | Altitude | Speed | Heading |
|---|---|---|---|---|---|
| 2026-05-05 00:48 | 25.79322 | -80.28122 | 27 ft | 0 kts | 167° |
| 2026-05-05 01:07 | 25.79325 | -80.28123 | 27 ft | 4 kts | 167° |
| 2026-05-05 01:07 | 25.79351 | -80.28129 | 29 ft | 4 kts | 168° |
| 2026-05-05 01:07 | 25.79373 | -80.28131 | 27 ft | 4 kts | 202° |
| 2026-05-05 01:07 | 25.79391 | -80.28113 | 27 ft | 4 kts | 242° |
| 2026-05-05 01:08 | 25.79395 | -80.28104 | 27 ft | 4 kts | 247° |
| 2026-05-05 01:13 | 25.79395 | -80.28105 | 27 ft | 1 kts | 247° |
| 2026-05-05 01:13 | 25.79386 | -80.28127 | 27 ft | 4 kts | 246° |
| 2026-05-05 01:13 | 25.79371 | -80.28162 | 30 ft | 6 kts | 253° |
| 2026-05-05 01:13 | 25.79365 | -80.28215 | 25 ft | 8 kts | 256° |
| 2026-05-05 01:14 | 25.79335 | -80.28273 | 26 ft | 10 kts | 230° |
| 2026-05-05 01:14 | 25.79280 | -80.28326 | 25 ft | 11 kts | 221° |
| 2026-05-05 01:14 | 25.79262 | -80.28344 | 27 ft | 0 kts | 222° |
| 2026-05-05 01:15 | 25.79256 | -80.28349 | 25 ft | 3 kts | 222° |
| 2026-05-05 01:15 | 25.79231 | -80.28375 | 26 ft | 6 kts | 222° |
| 2026-05-05 01:15 | 25.79190 | -80.28399 | 24 ft | 8 kts | 199° |
| 2026-05-05 01:15 | 25.79152 | -80.28450 | 22 ft | 12 kts | 279° |
| 2026-05-05 01:16 | 25.79196 | -80.28545 | 21 ft | 15 kts | 298° |
| 2026-05-05 01:16 | 25.79248 | -80.28651 | 20 ft | 16 kts | 298° |
| 2026-05-05 01:16 | 25.79304 | -80.28765 | 18 ft | 17 kts | 298° |
| 2026-05-05 01:16 | 25.79363 | -80.28886 | 20 ft | 19 kts | 298° |
| 2026-05-05 01:17 | 25.79432 | -80.29014 | 21 ft | 20 kts | 304° |
| 2026-05-05 01:17 | 25.79505 | -80.29153 | 23 ft | 21 kts | 300° |
| 2026-05-05 01:17 | 25.79579 | -80.29302 | 24 ft | 23 kts | 301° |
| 2026-05-05 01:17 | 25.79660 | -80.29458 | 23 ft | 24 kts | 298° |
| 2026-05-05 01:18 | 25.79742 | -80.29620 | 19 ft | 25 kts | 300° |
| 2026-05-05 01:18 | 25.79828 | -80.29787 | 17 ft | 25 kts | 302° |
| 2026-05-05 01:18 | 25.79917 | -80.29962 | 18 ft | 20 kts | 299° |
| 2026-05-05 01:18 | 25.79945 | -80.30017 | 18 ft | 9 kts | 300° |
| 2026-05-05 01:19 | 25.79979 | -80.30082 | 19 ft | 11 kts | 300° |
| 2026-05-05 01:19 | 25.80046 | -80.30127 | 20 ft | 13 kts | 3° |
| 2026-05-05 01:19 | 25.80075 | -80.30036 | 18 ft | 9 kts | 88° |
| 2026-05-05 01:19 | 25.80075 | -80.30033 | 18 ft | 0 kts | 88° |
| 2026-05-05 01:20 | 25.80077 | -80.29968 | 17 ft | 36 kts | 87° |
| 2026-05-05 01:20 | 25.80103 | -80.29390 | 22 ft | 114 kts | 87° |
| 2026-05-05 01:20 | 25.80156 | -80.28236 | 51 ft | 175 kts | 86° |
| 2026-05-05 01:21 | 25.80194 | -80.26917 | 884 ft | 168 kts | 88° |
| 2026-05-05 01:21 | 25.80235 | -80.25624 | 1725 ft | 168 kts | 84° |
| 2026-05-05 01:21 | 25.80365 | -80.24244 | 2184 ft | 189 kts | 83° |
| 2026-05-05 01:21 | 25.80466 | -80.22726 | 2742 ft | 205 kts | 88° |
| 2026-05-05 01:22 | 25.80501 | -80.21076 | 3251 ft | 225 kts | 88° |
| 2026-05-05 01:22 | 25.80624 | -80.19276 | 3672 ft | 247 kts | 78° |
| 2026-05-05 01:22 | 25.81349 | -80.17468 | 4245 ft | 264 kts | 51° |
| 2026-05-05 01:22 | 25.82804 | -80.16173 | 4785 ft | 271 kts | 24° |
| 2026-05-05 01:23 | 25.84633 | -80.15731 | 5015 ft | 272 kts | 2° |
| 2026-05-05 01:23 | 25.86530 | -80.15704 | 5061 ft | 273 kts | 359° |
| 2026-05-05 01:23 | 25.88435 | -80.15696 | 5048 ft | 273 kts | 359° |
| 2026-05-05 01:23 | 25.90280 | -80.15956 | 5031 ft | 272 kts | 344° |
| 2026-05-05 01:24 | 25.92088 | -80.16588 | 5025 ft | 272 kts | 341° |
| 2026-05-05 01:24 | 25.93892 | -80.17253 | 5024 ft | 274 kts | 341° |
| 2026-05-05 01:24 | 25.95713 | -80.17912 | 5022 ft | 274 kts | 342° |
| 2026-05-05 01:24 | 25.97469 | -80.18722 | 5006 ft | 274 kts | 326° |
| 2026-05-05 01:25 | 25.98781 | -80.20219 | 5000 ft | 273 kts | 298° |
| 2026-05-05 01:25 | 25.99347 | -80.22217 | 5062 ft | 272 kts | 277° |
| 2026-05-05 01:25 | 25.99550 | -80.24293 | 5728 ft | 271 kts | 275° |
| 2026-05-05 01:25 | 25.99746 | -80.26378 | 6638 ft | 272 kts | 275° |
| 2026-05-05 01:26 | 25.99817 | -80.28473 | 7512 ft | 272 kts | 269° |
| 2026-05-05 01:26 | 25.99801 | -80.30576 | 8362 ft | 273 kts | 268° |
| 2026-05-05 01:26 | 25.99785 | -80.32697 | 9224 ft | 275 kts | 268° |
| 2026-05-05 01:26 | 25.99774 | -80.34821 | 10053 ft | 276 kts | 268° |
| 2026-05-05 01:27 | 25.99766 | -80.37001 | 10535 ft | 291 kts | 268° |
| 2026-05-05 01:27 | 25.99760 | -80.39340 | 10829 ft | 311 kts | 268° |
| 2026-05-05 01:27 | 25.99550 | -80.41786 | 11076 ft | 329 kts | 257° |
| 2026-05-05 01:27 | 25.98733 | -80.44228 | 10669 ft | 348 kts | 242° |
| 2026-05-05 01:28 | 25.97320 | -80.46502 | 11551 ft | 366 kts | 233° |
| 2026-05-05 01:28 | 25.95686 | -80.48751 | 11779 ft | 382 kts | 232° |
| 2026-05-05 01:28 | 25.93993 | -80.51076 | 12185 ft | 388 kts | 233° |
| 2026-05-05 01:28 | 25.92307 | -80.53421 | 12772 ft | 390 kts | 233° |
| 2026-05-05 01:29 | 25.90620 | -80.55790 | 13402 ft | 392 kts | 234° |
| 2026-05-05 01:29 | 25.88935 | -80.58165 | 13953 ft | 394 kts | 234° |
| 2026-05-05 01:29 | 25.87234 | -80.60567 | 14421 ft | 396 kts | 234° |
| 2026-05-05 01:29 | 25.85521 | -80.62986 | 14954 ft | 399 kts | 234° |
| 2026-05-05 01:30 | 25.83798 | -80.65419 | 15543 ft | 401 kts | 234° |
| 2026-05-05 01:30 | 25.82074 | -80.67856 | 16112 ft | 403 kts | 234° |
| 2026-05-05 01:30 | 25.80340 | -80.70305 | 16648 ft | 405 kts | 235° |
| 2026-05-05 01:30 | 25.78768 | -80.72899 | 17158 ft | 404 kts | 244° |
| 2026-05-05 01:31 | 25.77681 | -80.75764 | 17657 ft | 404 kts | 253° |
| 2026-05-05 01:31 | 25.76863 | -80.78738 | 18166 ft | 405 kts | 255° |
| 2026-05-05 01:31 | 25.76064 | -80.81755 | 18602 ft | 408 kts | 255° |
| 2026-05-05 01:31 | 25.75256 | -80.84779 | 19011 ft | 410 kts | 255° |
| 2026-05-05 01:32 | 25.74434 | -80.87818 | 19432 ft | 413 kts | 255° |
| 2026-05-05 01:32 | 25.73601 | -80.90873 | 19867 ft | 415 kts | 255° |
| 2026-05-05 01:32 | 25.72763 | -80.93945 | 20275 ft | 417 kts | 255° |
| 2026-05-05 01:32 | 25.71920 | -80.97033 | 20685 ft | 420 kts | 255° |
| 2026-05-05 01:33 | 25.71068 | -81.00145 | 21143 ft | 423 kts | 255° |
| 2026-05-05 01:33 | 25.70211 | -81.03271 | 21646 ft | 426 kts | 255° |
| 2026-05-05 01:33 | 25.69343 | -81.06430 | 22134 ft | 428 kts | 255° |
| 2026-05-05 01:33 | 25.68476 | -81.09593 | 22584 ft | 431 kts | 256° |
| 2026-05-05 01:34 | 25.67601 | -81.12785 | 22997 ft | 434 kts | 256° |
| 2026-05-05 01:34 | 25.66719 | -81.15993 | 23374 ft | 437 kts | 256° |
| 2026-05-05 01:34 | 25.65965 | -81.19253 | 23676 ft | 437 kts | 262° |
| 2026-05-05 01:34 | 25.65689 | -81.22590 | 24021 ft | 434 kts | 271° |
| 2026-05-05 01:35 | 25.65966 | -81.25916 | 24375 ft | 432 kts | 281° |
| 2026-05-05 01:35 | 25.66782 | -81.29100 | 24733 ft | 430 kts | 290° |
| 2026-05-05 01:35 | 25.68044 | -81.32103 | 25135 ft | 428 kts | 296° |
| 2026-05-05 01:35 | 25.69409 | -81.35031 | 25559 ft | 426 kts | 296° |
| 2026-05-05 01:36 | 25.70760 | -81.37938 | 25980 ft | 424 kts | 296° |
| 2026-05-05 01:36 | 25.72094 | -81.40852 | 26393 ft | 422 kts | 296° |
| 2026-05-05 01:36 | 25.73408 | -81.43745 | 26792 ft | 420 kts | 296° |
| 2026-05-05 01:36 | 25.74717 | -81.46629 | 27174 ft | 418 kts | 296° |
| 2026-05-05 01:37 | 25.76024 | -81.49507 | 27557 ft | 417 kts | 296° |
| 2026-05-05 01:37 | 25.77328 | -81.52382 | 27933 ft | 416 kts | 296° |
| 2026-05-05 01:37 | 25.78625 | -81.55241 | 28303 ft | 414 kts | 296° |
| 2026-05-05 01:37 | 25.79915 | -81.58090 | 28675 ft | 413 kts | 296° |
| 2026-05-05 01:38 | 25.80767 | -81.59971 | 28937 ft | 412 kts | 297° |
| 2026-05-05 01:38 | 25.82484 | -81.63761 | 29415 ft | 410 kts | 297° |
| 2026-05-05 01:38 | 25.83336 | -81.65642 | 29654 ft | 410 kts | 297° |
| 2026-05-05 01:38 | 25.84612 | -81.68463 | 30007 ft | 408 kts | 297° |
| 2026-05-05 01:39 | 25.85881 | -81.71272 | 30292 ft | 407 kts | 297° |
| 2026-05-05 01:39 | 25.87142 | -81.74064 | 30561 ft | 405 kts | 297° |
| 2026-05-05 01:39 | 25.88537 | -81.76774 | 30815 ft | 403 kts | 304° |
| 2026-05-05 01:39 | 25.90295 | -81.79192 | 31087 ft | 403 kts | 313° |
| 2026-05-05 01:40 | 25.92399 | -81.81250 | 31339 ft | 404 kts | 319° |
| 2026-05-05 01:40 | 25.94645 | -81.83135 | 31602 ft | 402 kts | 320° |
| 2026-05-05 01:40 | 25.96881 | -81.84983 | 31854 ft | 401 kts | 320° |
| 2026-05-05 01:40 | 25.99120 | -81.86847 | 32029 ft | 402 kts | 320° |
| 2026-05-05 01:41 | 26.03596 | -81.90590 | 32075 ft | 403 kts | 320° |
| 2026-05-05 01:41 | 26.08060 | -81.94341 | 32039 ft | 402 kts | 320° |
| 2026-05-05 01:42 | 26.12520 | -81.98099 | 32049 ft | 402 kts | 320° |
| 2026-05-05 01:42 | 26.16980 | -82.01860 | 32048 ft | 402 kts | 320° |
| 2026-05-05 01:43 | 26.21433 | -82.05618 | 32045 ft | 402 kts | 320° |
| 2026-05-05 01:43 | 26.25887 | -82.09379 | 32038 ft | 402 kts | 320° |
| 2026-05-05 01:44 | 26.30340 | -82.13146 | 32039 ft | 402 kts | 320° |
| 2026-05-05 01:44 | 26.34797 | -82.16919 | 32022 ft | 402 kts | 320° |
| 2026-05-05 01:45 | 26.39245 | -82.20687 | 32026 ft | 401 kts | 320° |
| 2026-05-05 01:45 | 26.43683 | -82.24451 | 32016 ft | 401 kts | 320° |
| 2026-05-05 01:46 | 26.48123 | -82.28220 | 32015 ft | 401 kts | 320° |
| 2026-05-05 01:46 | 26.52560 | -82.31994 | 32015 ft | 401 kts | 320° |
| 2026-05-05 01:47 | 26.56997 | -82.35767 | 32019 ft | 401 kts | 320° |
| 2026-05-05 01:47 | 26.61436 | -82.39549 | 32020 ft | 401 kts | 320° |
| 2026-05-05 01:48 | 26.65847 | -82.43306 | 32016 ft | 398 kts | 320° |
| 2026-05-05 01:48 | 26.70242 | -82.47057 | 32032 ft | 397 kts | 320° |
| 2026-05-05 01:49 | 26.74605 | -82.50789 | 32020 ft | 397 kts | 320° |
| 2026-05-05 01:49 | 26.78992 | -82.54539 | 32019 ft | 397 kts | 320° |
| 2026-05-05 01:50 | 26.83411 | -82.58316 | 32025 ft | 397 kts | 319° |
| 2026-05-05 01:50 | 26.87795 | -82.62076 | 32027 ft | 397 kts | 319° |
| 2026-05-05 01:51 | 26.92182 | -82.65837 | 32030 ft | 397 kts | 319° |
| 2026-05-05 01:51 | 26.96575 | -82.69607 | 32030 ft | 398 kts | 319° |
| 2026-05-05 01:52 | 27.00930 | -82.73352 | 32040 ft | 398 kts | 319° |
| 2026-05-05 01:52 | 27.05327 | -82.77133 | 32029 ft | 398 kts | 319° |
| 2026-05-05 01:53 | 27.09696 | -82.80893 | 32021 ft | 393 kts | 319° |
| 2026-05-05 01:53 | 27.13426 | -82.85326 | 32025 ft | 391 kts | 303° |
| 2026-05-05 01:54 | 27.15656 | -82.90891 | 32029 ft | 393 kts | 292° |
| 2026-05-05 01:54 | 27.17468 | -82.96682 | 32026 ft | 393 kts | 292° |
| 2026-05-05 01:55 | 27.19301 | -83.02465 | 32032 ft | 393 kts | 292° |
| 2026-05-05 01:55 | 27.21143 | -83.08240 | 32033 ft | 393 kts | 292° |
| 2026-05-05 01:56 | 27.22985 | -83.14024 | 32033 ft | 393 kts | 292° |
| 2026-05-05 01:56 | 27.24821 | -83.19795 | 32028 ft | 391 kts | 292° |
| 2026-05-05 01:57 | 27.26638 | -83.25512 | 32030 ft | 391 kts | 292° |
| 2026-05-05 01:57 | 27.28474 | -83.31307 | 32029 ft | 391 kts | 292° |
| 2026-05-05 01:58 | 27.30296 | -83.37060 | 32028 ft | 391 kts | 292° |
| 2026-05-05 01:58 | 27.32114 | -83.42813 | 32071 ft | 391 kts | 292° |
| 2026-05-05 01:59 | 27.33922 | -83.48554 | 32041 ft | 389 kts | 292° |
| 2026-05-05 01:59 | 27.35733 | -83.54299 | 32027 ft | 389 kts | 292° |
| 2026-05-05 02:00 | 27.37530 | -83.60009 | 32038 ft | 387 kts | 292° |
| 2026-05-05 02:00 | 27.39324 | -83.65725 | 32038 ft | 387 kts | 292° |
| 2026-05-05 02:01 | 27.41117 | -83.71443 | 32036 ft | 388 kts | 292° |
| 2026-05-05 02:01 | 27.42908 | -83.77168 | 32035 ft | 388 kts | 292° |
| 2026-05-05 02:02 | 27.44695 | -83.82887 | 32036 ft | 388 kts | 292° |
| 2026-05-05 02:02 | 27.46479 | -83.88615 | 32039 ft | 388 kts | 292° |
| 2026-05-05 02:03 | 27.48265 | -83.94350 | 32173 ft | 389 kts | 292° |
| 2026-05-05 02:03 | 27.49158 | -83.97230 | 32405 ft | 388 kts | 292° |
| 2026-05-05 02:03 | 27.50034 | -84.00048 | 32623 ft | 387 kts | 292° |
| 2026-05-05 02:04 | 27.50922 | -84.02900 | 32864 ft | 385 kts | 292° |
| 2026-05-05 02:04 | 27.51806 | -84.05746 | 33083 ft | 384 kts | 292° |
| 2026-05-05 02:04 | 27.52683 | -84.08572 | 33305 ft | 382 kts | 292° |
| 2026-05-05 02:04 | 27.53557 | -84.11392 | 33516 ft | 381 kts | 292° |
| 2026-05-05 02:05 | 27.54425 | -84.14200 | 33735 ft | 379 kts | 292° |
| 2026-05-05 02:05 | 27.55292 | -84.17002 | 33941 ft | 378 kts | 292° |
| 2026-05-05 02:05 | 27.56151 | -84.19784 | 34054 ft | 376 kts | 292° |
| 2026-05-05 02:05 | 27.57009 | -84.22563 | 34062 ft | 374 kts | 292° |
| 2026-05-05 02:06 | 27.58718 | -84.28098 | 34048 ft | 374 kts | 292° |
| 2026-05-05 02:06 | 27.60419 | -84.33627 | 34041 ft | 374 kts | 292° |
| 2026-05-05 02:07 | 27.62119 | -84.39169 | 34044 ft | 374 kts | 292° |
| 2026-05-05 02:07 | 27.63823 | -84.44724 | 34042 ft | 374 kts | 292° |
| 2026-05-05 02:08 | 27.65517 | -84.50255 | 34047 ft | 374 kts | 292° |
| 2026-05-05 02:08 | 27.67219 | -84.55810 | 34041 ft | 374 kts | 292° |
| 2026-05-05 02:09 | 27.68916 | -84.61355 | 34048 ft | 374 kts | 292° |
| 2026-05-05 02:09 | 27.70608 | -84.66901 | 34038 ft | 374 kts | 292° |
| 2026-05-05 02:10 | 27.72303 | -84.72469 | 34045 ft | 375 kts | 292° |
| 2026-05-05 02:10 | 27.73996 | -84.78035 | 34052 ft | 375 kts | 292° |
| 2026-05-05 02:11 | 27.75685 | -84.83605 | 34048 ft | 375 kts | 292° |
| 2026-05-05 02:11 | 27.77375 | -84.89187 | 34047 ft | 375 kts | 292° |
| 2026-05-05 02:12 | 27.79905 | -84.97554 | 34049 ft | 375 kts | 292° |
| 2026-05-05 02:13 | 27.81592 | -85.03138 | 34054 ft | 375 kts | 292° |
| 2026-05-05 02:13 | 27.83278 | -85.08728 | 34049 ft | 377 kts | 292° |
| 2026-05-05 02:14 | 27.84963 | -85.14337 | 34051 ft | 377 kts | 292° |
| 2026-05-05 02:14 | 27.86648 | -85.19946 | 34049 ft | 377 kts | 292° |
| 2026-05-05 02:15 | 27.88329 | -85.25552 | 34050 ft | 377 kts | 292° |
| 2026-05-05 02:15 | 27.90025 | -85.31163 | 34050 ft | 377 kts | 292° |
| 2026-05-05 02:16 | 27.91725 | -85.36763 | 34050 ft | 377 kts | 292° |
| 2026-05-05 02:16 | 27.93422 | -85.42371 | 34051 ft | 377 kts | 292° |
| 2026-05-05 02:17 | 27.95115 | -85.47971 | 34050 ft | 376 kts | 292° |
| 2026-05-05 02:17 | 27.96806 | -85.53576 | 34053 ft | 376 kts | 292° |
| 2026-05-05 02:18 | 27.98493 | -85.59179 | 34053 ft | 377 kts | 292° |
| 2026-05-05 02:18 | 28.00181 | -85.64790 | 34079 ft | 376 kts | 292° |
| 2026-05-05 02:19 | 28.01855 | -85.70367 | 34057 ft | 374 kts | 292° |
| 2026-05-05 02:19 | 28.03516 | -85.75906 | 34052 ft | 374 kts | 292° |
| 2026-05-05 02:20 | 28.05199 | -85.81532 | 34050 ft | 374 kts | 292° |
| 2026-05-05 02:20 | 28.06852 | -85.87070 | 34052 ft | 374 kts | 292° |
| 2026-05-05 02:21 | 28.08530 | -85.92695 | 34053 ft | 374 kts | 292° |
| 2026-05-05 02:21 | 28.09911 | -85.97339 | 34048 ft | 374 kts | 292° |
| 2026-05-05 02:22 | 28.11839 | -86.03828 | 34052 ft | 374 kts | 292° |
| 2026-05-05 02:22 | 28.13496 | -86.09418 | 34050 ft | 374 kts | 292° |
| 2026-05-05 02:23 | 28.14884 | -86.14102 | 34047 ft | 374 kts | 292° |
| 2026-05-05 02:23 | 28.16537 | -86.19691 | 34046 ft | 374 kts | 292° |
| 2026-05-05 02:24 | 28.18182 | -86.25262 | 34049 ft | 373 kts | 292° |
| 2026-05-05 02:24 | 28.19829 | -86.30847 | 34048 ft | 373 kts | 292° |
| 2026-05-05 02:25 | 28.21468 | -86.36412 | 34055 ft | 373 kts | 292° |
| 2026-05-05 02:25 | 28.23109 | -86.42001 | 34056 ft | 373 kts | 292° |
| 2026-05-05 02:26 | 28.24746 | -86.47579 | 34054 ft | 373 kts | 292° |
| 2026-05-05 02:26 | 28.26379 | -86.53161 | 34047 ft | 373 kts | 292° |
| 2026-05-05 02:27 | 28.28011 | -86.58743 | 34044 ft | 374 kts | 292° |
| 2026-05-05 02:27 | 28.29647 | -86.64354 | 34052 ft | 374 kts | 292° |
| 2026-05-05 02:28 | 28.31283 | -86.69968 | 34054 ft | 374 kts | 292° |
| 2026-05-05 02:28 | 28.32921 | -86.75567 | 34053 ft | 374 kts | 292° |
| 2026-05-05 02:29 | 28.34557 | -86.81142 | 34052 ft | 372 kts | 292° |
| 2026-05-05 02:29 | 28.36188 | -86.86716 | 34050 ft | 372 kts | 292° |
| 2026-05-05 02:30 | 28.37814 | -86.92282 | 34055 ft | 372 kts | 292° |
| 2026-05-05 02:30 | 28.39439 | -86.97864 | 34063 ft | 372 kts | 292° |
| 2026-05-05 02:31 | 28.41057 | -87.03434 | 34049 ft | 372 kts | 292° |
| 2026-05-05 02:31 | 28.42678 | -87.09020 | 34066 ft | 372 kts | 292° |
| 2026-05-05 02:32 | 28.44289 | -87.14566 | 34058 ft | 373 kts | 292° |
| 2026-05-05 02:32 | 28.45911 | -87.20166 | 34056 ft | 373 kts | 292° |
| 2026-05-05 02:33 | 28.47528 | -87.25763 | 34065 ft | 373 kts | 292° |
| 2026-05-05 02:33 | 28.49144 | -87.31360 | 34066 ft | 373 kts | 292° |
| 2026-05-05 02:34 | 28.50759 | -87.36967 | 34055 ft | 374 kts | 292° |
| 2026-05-05 02:34 | 28.52374 | -87.42592 | 34060 ft | 375 kts | 292° |
| 2026-05-05 02:35 | 28.53992 | -87.48233 | 34057 ft | 375 kts | 292° |
| 2026-05-05 02:35 | 28.55602 | -87.53858 | 34058 ft | 374 kts | 292° |
| 2026-05-05 02:36 | 28.57213 | -87.59494 | 34059 ft | 374 kts | 292° |
| 2026-05-05 02:36 | 28.58819 | -87.65128 | 34060 ft | 375 kts | 292° |
| 2026-05-05 02:37 | 28.60425 | -87.70768 | 34058 ft | 375 kts | 292° |
| 2026-05-05 02:37 | 28.62038 | -87.76438 | 34051 ft | 377 kts | 292° |
| 2026-05-05 02:38 | 28.63655 | -87.82123 | 34059 ft | 378 kts | 292° |
| 2026-05-05 02:38 | 28.65265 | -87.87807 | 34086 ft | 374 kts | 292° |
| 2026-05-05 02:39 | 28.66852 | -87.93420 | 34062 ft | 373 kts | 292° |
| 2026-05-05 02:39 | 28.68441 | -87.99041 | 34060 ft | 373 kts | 292° |
| 2026-05-05 02:40 | 28.70029 | -88.04668 | 34060 ft | 373 kts | 292° |
| 2026-05-05 02:40 | 28.71611 | -88.10288 | 34052 ft | 373 kts | 292° |
| 2026-05-05 02:41 | 28.73194 | -88.15922 | 34058 ft | 374 kts | 292° |
| 2026-05-05 02:41 | 28.74778 | -88.21567 | 34058 ft | 374 kts | 292° |
| 2026-05-05 02:42 | 28.76092 | -88.26265 | 34055 ft | 374 kts | 292° |
| 2026-05-05 02:42 | 28.77923 | -88.32818 | 34055 ft | 374 kts | 292° |
| 2026-05-05 02:43 | 28.79500 | -88.38475 | 34056 ft | 374 kts | 292° |
| 2026-05-05 02:43 | 28.81074 | -88.44128 | 34058 ft | 374 kts | 292° |
| 2026-05-05 02:44 | 28.82646 | -88.49783 | 34042 ft | 376 kts | 292° |
| 2026-05-05 02:44 | 28.84224 | -88.55475 | 34053 ft | 377 kts | 292° |
| 2026-05-05 02:45 | 28.85802 | -88.61175 | 34055 ft | 377 kts | 291° |
| 2026-05-05 02:45 | 28.87377 | -88.66887 | 34055 ft | 377 kts | 291° |
| 2026-05-05 02:46 | 28.88826 | -88.72648 | 34056 ft | 379 kts | 289° |
| 2026-05-05 02:46 | 28.90071 | -88.78493 | 34050 ft | 379 kts | 288° |
| 2026-05-05 02:47 | 28.91316 | -88.84343 | 34049 ft | 379 kts | 289° |
| 2026-05-05 02:47 | 28.92560 | -88.90184 | 34047 ft | 379 kts | 288° |
| 2026-05-05 02:48 | 28.93803 | -88.96040 | 34050 ft | 379 kts | 288° |
| 2026-05-05 02:48 | 28.95043 | -89.01893 | 34049 ft | 379 kts | 288° |
| 2026-05-05 02:49 | 28.96268 | -89.07734 | 34062 ft | 376 kts | 289° |
| 2026-05-05 02:49 | 28.97490 | -89.13548 | 34052 ft | 377 kts | 289° |
| 2026-05-05 02:50 | 28.98707 | -89.19334 | 34051 ft | 377 kts | 289° |
| 2026-05-05 02:50 | 28.99931 | -89.25150 | 34040 ft | 377 kts | 288° |
| 2026-05-05 02:51 | 29.01158 | -89.30970 | 34046 ft | 377 kts | 288° |
| 2026-05-05 02:51 | 29.02377 | -89.36797 | 34047 ft | 377 kts | 288° |
| 2026-05-05 02:52 | 29.03590 | -89.42628 | 34044 ft | 377 kts | 288° |
| 2026-05-05 02:52 | 29.04797 | -89.48474 | 34044 ft | 378 kts | 288° |
| 2026-05-05 02:53 | 29.06010 | -89.54309 | 34045 ft | 377 kts | 288° |
| 2026-05-05 02:53 | 29.07219 | -89.60148 | 34045 ft | 377 kts | 288° |
| 2026-05-05 02:54 | 29.08427 | -89.65976 | 34047 ft | 377 kts | 288° |
| 2026-05-05 02:54 | 29.09630 | -89.71816 | 34044 ft | 378 kts | 288° |
| 2026-05-05 02:55 | 29.10831 | -89.77667 | 34044 ft | 378 kts | 288° |
| 2026-05-05 02:55 | 29.12034 | -89.83512 | 34045 ft | 377 kts | 288° |
| 2026-05-05 02:56 | 29.13232 | -89.89351 | 34045 ft | 378 kts | 288° |
| 2026-05-05 02:56 | 29.14426 | -89.95202 | 34043 ft | 378 kts | 288° |
| 2026-05-05 02:57 | 29.15612 | -90.01052 | 34035 ft | 377 kts | 288° |
| 2026-05-05 02:57 | 29.16799 | -90.06894 | 34042 ft | 377 kts | 288° |
| 2026-05-05 02:58 | 29.17917 | -90.12757 | 34044 ft | 378 kts | 286° |
| 2026-05-05 02:58 | 29.18918 | -90.18674 | 34044 ft | 378 kts | 286° |
| 2026-05-05 02:59 | 29.19919 | -90.24580 | 34044 ft | 378 kts | 286° |
| 2026-05-05 02:59 | 29.20915 | -90.30481 | 34046 ft | 378 kts | 286° |
| 2026-05-05 03:00 | 29.21909 | -90.36398 | 34031 ft | 378 kts | 285° |
| 2026-05-05 03:00 | 29.22896 | -90.42298 | 34044 ft | 377 kts | 285° |
| 2026-05-05 03:01 | 29.23881 | -90.48200 | 34044 ft | 378 kts | 285° |
| 2026-05-05 03:01 | 29.24870 | -90.54111 | 34071 ft | 378 kts | 286° |
| 2026-05-05 03:02 | 29.25847 | -90.59984 | 34045 ft | 375 kts | 285° |
| 2026-05-05 03:02 | 29.26822 | -90.65863 | 34036 ft | 375 kts | 286° |
| 2026-05-05 03:03 | 29.27787 | -90.71733 | 34036 ft | 376 kts | 286° |
| 2026-05-05 03:03 | 29.28762 | -90.77618 | 34026 ft | 376 kts | 285° |
| 2026-05-05 03:04 | 29.29720 | -90.83454 | 34029 ft | 375 kts | 285° |
| 2026-05-05 03:04 | 29.30685 | -90.89334 | 34030 ft | 375 kts | 285° |
| 2026-05-05 03:05 | 29.31646 | -90.95210 | 34027 ft | 375 kts | 285° |
| 2026-05-05 03:05 | 29.32605 | -91.01091 | 34027 ft | 375 kts | 285° |
| 2026-05-05 03:06 | 29.33562 | -91.06968 | 34027 ft | 375 kts | 285° |
| 2026-05-05 03:06 | 29.34513 | -91.12852 | 34026 ft | 375 kts | 285° |
| 2026-05-05 03:07 | 29.35465 | -91.18733 | 34016 ft | 376 kts | 285° |
| 2026-05-05 03:07 | 29.36414 | -91.24628 | 34021 ft | 376 kts | 285° |
| 2026-05-05 03:08 | 29.37200 | -91.29527 | 34019 ft | 376 kts | 285° |
| 2026-05-05 03:08 | 29.38140 | -91.35428 | 34022 ft | 376 kts | 285° |
| 2026-05-05 03:09 | 29.39084 | -91.41330 | 34021 ft | 376 kts | 285° |
| 2026-05-05 03:09 | 29.40024 | -91.47223 | 34022 ft | 376 kts | 285° |
| 2026-05-05 03:10 | 29.40966 | -91.53120 | 34007 ft | 376 kts | 285° |
| 2026-05-05 03:10 | 29.41901 | -91.59029 | 34018 ft | 376 kts | 284° |
| 2026-05-05 03:11 | 29.42835 | -91.64941 | 34020 ft | 377 kts | 284° |
| 2026-05-05 03:11 | 29.43765 | -91.70854 | 34010 ft | 376 kts | 284° |
| 2026-05-05 03:12 | 29.44700 | -91.76767 | 34011 ft | 377 kts | 284° |
| 2026-05-05 03:12 | 29.45626 | -91.82680 | 34009 ft | 377 kts | 284° |
| 2026-05-05 03:13 | 29.46542 | -91.88598 | 34004 ft | 377 kts | 284° |
| 2026-05-05 03:13 | 29.47468 | -91.94515 | 33996 ft | 377 kts | 284° |
| 2026-05-05 03:14 | 29.48386 | -92.00444 | 33992 ft | 377 kts | 284° |
| 2026-05-05 03:14 | 29.49290 | -92.06329 | 33994 ft | 377 kts | 284° |
| 2026-05-05 03:15 | 29.50203 | -92.12267 | 33996 ft | 377 kts | 284° |
| 2026-05-05 03:15 | 29.51121 | -92.18194 | 33991 ft | 377 kts | 284° |
| 2026-05-05 03:16 | 29.52026 | -92.24120 | 34023 ft | 377 kts | 284° |
| 2026-05-05 03:16 | 29.52928 | -92.30032 | 33983 ft | 376 kts | 284° |
| 2026-05-05 03:17 | 29.53833 | -92.35950 | 33987 ft | 377 kts | 284° |
| 2026-05-05 03:17 | 29.54738 | -92.41882 | 33985 ft | 377 kts | 284° |
| 2026-05-05 03:18 | 29.55634 | -92.47814 | 33985 ft | 377 kts | 284° |
| 2026-05-05 03:18 | 29.56529 | -92.53745 | 33985 ft | 377 kts | 284° |
| 2026-05-05 03:19 | 29.57865 | -92.62650 | 33983 ft | 377 kts | 283° |
| 2026-05-05 03:19 | 29.58751 | -92.68575 | 33965 ft | 378 kts | 283° |
| 2026-05-05 03:20 | 29.59626 | -92.74545 | 33982 ft | 379 kts | 283° |
| 2026-05-05 03:20 | 29.60499 | -92.80527 | 33985 ft | 379 kts | 283° |
| 2026-05-05 03:21 | 29.61397 | -92.86498 | 33981 ft | 379 kts | 283° |
| 2026-05-05 03:21 | 29.62277 | -92.92456 | 33982 ft | 379 kts | 283° |
| 2026-05-05 03:22 | 29.63156 | -92.98436 | 33985 ft | 379 kts | 283° |
| 2026-05-05 03:22 | 29.64045 | -93.04411 | 33986 ft | 379 kts | 283° |
| 2026-05-05 03:23 | 29.64928 | -93.10395 | 33974 ft | 381 kts | 283° |
| 2026-05-05 03:23 | 29.65798 | -93.16359 | 33978 ft | 381 kts | 283° |
| 2026-05-05 03:24 | 29.66676 | -93.22369 | 33975 ft | 381 kts | 283° |
| 2026-05-05 03:24 | 29.67547 | -93.28365 | 33976 ft | 381 kts | 283° |
| 2026-05-05 03:25 | 29.68406 | -93.34380 | 33977 ft | 381 kts | 283° |
| 2026-05-05 03:25 | 29.69273 | -93.40388 | 33973 ft | 381 kts | 283° |
| 2026-05-05 03:26 | 29.70131 | -93.46394 | 33973 ft | 381 kts | 283° |
| 2026-05-05 03:26 | 29.70994 | -93.52410 | 33966 ft | 381 kts | 283° |
| 2026-05-05 03:27 | 29.71850 | -93.58410 | 33965 ft | 381 kts | 283° |
| 2026-05-05 03:27 | 29.72707 | -93.64428 | 33965 ft | 381 kts | 283° |
| 2026-05-05 03:28 | 29.73559 | -93.70446 | 33962 ft | 381 kts | 282° |
| 2026-05-05 03:28 | 29.74408 | -93.76464 | 33961 ft | 381 kts | 283° |
| 2026-05-05 03:29 | 29.75257 | -93.82477 | 33950 ft | 381 kts | 282° |
| 2026-05-05 03:29 | 29.76101 | -93.88503 | 33957 ft | 382 kts | 282° |
| 2026-05-05 03:30 | 29.76936 | -93.94541 | 33985 ft | 381 kts | 282° |
| 2026-05-05 03:30 | 29.77768 | -94.00534 | 33959 ft | 379 kts | 282° |
| 2026-05-05 03:31 | 29.78602 | -94.06522 | 33959 ft | 379 kts | 282° |
| 2026-05-05 03:31 | 29.79430 | -94.12524 | 33957 ft | 379 kts | 282° |
| 2026-05-05 03:32 | 29.80260 | -94.18519 | 33953 ft | 379 kts | 282° |
| 2026-05-05 03:32 | 29.81082 | -94.24511 | 33951 ft | 378 kts | 282° |
| 2026-05-05 03:33 | 29.81904 | -94.30496 | 33949 ft | 378 kts | 282° |
| 2026-05-05 03:33 | 29.82716 | -94.36476 | 33949 ft | 378 kts | 282° |
| 2026-05-05 03:34 | 29.83520 | -94.42430 | 33948 ft | 378 kts | 282° |
| 2026-05-05 03:34 | 29.84334 | -94.48414 | 33946 ft | 378 kts | 282° |
| 2026-05-05 03:35 | 29.85142 | -94.54404 | 33952 ft | 378 kts | 282° |
| 2026-05-05 03:35 | 29.85949 | -94.60390 | 33951 ft | 378 kts | 282° |
| 2026-05-05 03:36 | 29.86742 | -94.66386 | 33942 ft | 379 kts | 282° |
| 2026-05-05 03:36 | 29.87548 | -94.72387 | 33949 ft | 378 kts | 282° |
| 2026-05-05 03:37 | 29.88349 | -94.78378 | 33962 ft | 379 kts | 282° |
| 2026-05-05 03:37 | 29.89139 | -94.84374 | 33952 ft | 379 kts | 281° |
| 2026-05-05 03:38 | 29.89926 | -94.90369 | 33938 ft | 379 kts | 281° |
| 2026-05-05 03:38 | 29.90719 | -94.96370 | 33935 ft | 379 kts | 281° |
| 2026-05-05 03:39 | 29.91506 | -95.02382 | 33951 ft | 379 kts | 281° |
| 2026-05-05 03:39 | 29.92295 | -95.08394 | 33946 ft | 379 kts | 281° |
| 2026-05-05 03:40 | 29.93074 | -95.14413 | 33949 ft | 380 kts | 281° |
| 2026-05-05 03:40 | 29.93857 | -95.20423 | 33941 ft | 380 kts | 281° |
| 2026-05-05 03:41 | 29.94636 | -95.26455 | 33945 ft | 380 kts | 281° |
| 2026-05-05 03:41 | 29.95411 | -95.32470 | 33944 ft | 380 kts | 281° |
| 2026-05-05 03:42 | 29.96306 | -95.38486 | 33939 ft | 380 kts | 282° |
| 2026-05-05 03:42 | 29.97274 | -95.44477 | 33943 ft | 380 kts | 282° |
| 2026-05-05 03:43 | 29.98230 | -95.50445 | 33935 ft | 380 kts | 282° |
| 2026-05-05 03:43 | 29.99198 | -95.56482 | 33930 ft | 381 kts | 282° |
| 2026-05-05 03:44 | 30.00145 | -95.62434 | 33946 ft | 378 kts | 282° |
| 2026-05-05 03:44 | 30.01098 | -95.68443 | 33897 ft | 378 kts | 282° |
| 2026-05-05 03:45 | 30.02048 | -95.74431 | 33888 ft | 380 kts | 282° |
| 2026-05-05 03:45 | 30.02989 | -95.80397 | 33873 ft | 380 kts | 282° |
| 2026-05-05 03:46 | 30.03935 | -95.86398 | 33873 ft | 380 kts | 282° |
| 2026-05-05 03:46 | 30.04881 | -95.92441 | 33866 ft | 380 kts | 282° |
| 2026-05-05 03:47 | 30.05818 | -95.98412 | 33821 ft | 380 kts | 282° |
| 2026-05-05 03:47 | 30.06756 | -96.04416 | 33796 ft | 380 kts | 282° |
| 2026-05-05 03:48 | 30.07689 | -96.10429 | 33743 ft | 381 kts | 282° |
| 2026-05-05 03:48 | 30.08617 | -96.16458 | 33717 ft | 381 kts | 282° |
| 2026-05-05 03:49 | 30.09555 | -96.22479 | 33713 ft | 381 kts | 282° |
| 2026-05-05 03:49 | 30.10479 | -96.28510 | 33709 ft | 381 kts | 282° |
| 2026-05-05 03:50 | 30.11407 | -96.34547 | 33708 ft | 382 kts | 282° |
| 2026-05-05 03:50 | 30.12333 | -96.40586 | 33723 ft | 382 kts | 282° |
| 2026-05-05 03:51 | 30.13252 | -96.46621 | 33701 ft | 381 kts | 282° |
| 2026-05-05 03:51 | 30.14175 | -96.52665 | 33707 ft | 382 kts | 281° |
| 2026-05-05 03:52 | 30.15094 | -96.58703 | 33744 ft | 382 kts | 281° |
| 2026-05-05 03:52 | 30.16008 | -96.64753 | 33794 ft | 382 kts | 281° |
| 2026-05-05 03:53 | 30.16917 | -96.70797 | 33836 ft | 382 kts | 281° |
| 2026-05-05 03:53 | 30.17827 | -96.76854 | 33881 ft | 382 kts | 281° |
| 2026-05-05 03:54 | 30.18582 | -96.81879 | 33912 ft | 382 kts | 281° |
| 2026-05-05 03:54 | 30.19638 | -96.88963 | 33946 ft | 383 kts | 281° |
| 2026-05-05 03:55 | 30.20390 | -96.94010 | 33948 ft | 384 kts | 281° |
| 2026-05-05 03:55 | 30.21292 | -97.00096 | 33974 ft | 384 kts | 281° |
| 2026-05-05 03:56 | 30.22189 | -97.06169 | 33957 ft | 383 kts | 281° |
| 2026-05-05 03:56 | 30.23084 | -97.12245 | 33925 ft | 383 kts | 281° |
| 2026-05-05 03:57 | 30.23978 | -97.18334 | 33830 ft | 384 kts | 281° |
| 2026-05-05 03:57 | 30.24862 | -97.24405 | 33825 ft | 384 kts | 281° |
| 2026-05-05 03:58 | 30.25752 | -97.30497 | 33839 ft | 384 kts | 281° |
| 2026-05-05 03:58 | 30.26638 | -97.36579 | 33839 ft | 384 kts | 281° |
| 2026-05-05 03:59 | 30.27521 | -97.42659 | 33841 ft | 384 kts | 281° |
| 2026-05-05 03:59 | 30.28400 | -97.48750 | 33841 ft | 384 kts | 281° |
| 2026-05-05 04:00 | 30.29274 | -97.54839 | 33842 ft | 384 kts | 281° |
| 2026-05-05 04:00 | 30.30148 | -97.60929 | 33849 ft | 384 kts | 280° |
| 2026-05-05 04:01 | 30.31022 | -97.67046 | 33851 ft | 386 kts | 280° |
| 2026-05-05 04:01 | 30.31887 | -97.73170 | 33853 ft | 386 kts | 280° |
| 2026-05-05 04:02 | 30.32756 | -97.79297 | 33859 ft | 386 kts | 280° |
| 2026-05-05 04:02 | 30.33626 | -97.85423 | 33899 ft | 386 kts | 280° |
| 2026-05-05 04:03 | 30.34489 | -97.91551 | 33910 ft | 386 kts | 280° |
| 2026-05-05 04:03 | 30.35351 | -97.97680 | 33895 ft | 386 kts | 280° |
| 2026-05-05 04:04 | 30.36212 | -98.03840 | 33910 ft | 389 kts | 279° |
| 2026-05-05 04:04 | 30.37070 | -98.10025 | 33909 ft | 389 kts | 280° |
| 2026-05-05 04:05 | 30.37930 | -98.16172 | 33894 ft | 389 kts | 279° |
| 2026-05-05 04:05 | 30.38791 | -98.22388 | 33869 ft | 389 kts | 280° |
| 2026-05-05 04:06 | 30.39637 | -98.28529 | 33871 ft | 389 kts | 279° |
| 2026-05-05 04:06 | 30.40473 | -98.34710 | 33851 ft | 389 kts | 279° |
| 2026-05-05 04:07 | 30.41315 | -98.40906 | 33869 ft | 390 kts | 279° |
| 2026-05-05 04:07 | 30.42168 | -98.47097 | 33841 ft | 390 kts | 279° |
| 2026-05-05 04:08 | 30.43021 | -98.53302 | 33833 ft | 390 kts | 279° |
| 2026-05-05 04:08 | 30.43870 | -98.59553 | 33835 ft | 390 kts | 279° |
| 2026-05-05 04:09 | 30.44703 | -98.65712 | 33827 ft | 390 kts | 279° |
| 2026-05-05 04:09 | 30.45531 | -98.71928 | 33827 ft | 390 kts | 279° |
| 2026-05-05 04:10 | 30.46356 | -98.78114 | 33824 ft | 388 kts | 279° |
| 2026-05-05 04:10 | 30.47184 | -98.84296 | 33818 ft | 388 kts | 279° |
| 2026-05-05 04:11 | 30.48003 | -98.90481 | 33813 ft | 388 kts | 279° |
| 2026-05-05 04:11 | 30.48824 | -98.96659 | 33809 ft | 388 kts | 279° |
| 2026-05-05 04:12 | 30.49648 | -99.02853 | 33808 ft | 388 kts | 279° |
| 2026-05-05 04:12 | 30.50463 | -99.09040 | 33810 ft | 388 kts | 279° |
| 2026-05-05 04:13 | 30.51276 | -99.15235 | 33803 ft | 388 kts | 278° |
| 2026-05-05 04:13 | 30.52084 | -99.21425 | 33803 ft | 388 kts | 278° |
| 2026-05-05 04:14 | 30.52888 | -99.27618 | 33800 ft | 388 kts | 278° |
| 2026-05-05 04:14 | 30.53691 | -99.33818 | 33799 ft | 389 kts | 278° |
| 2026-05-05 04:15 | 30.54492 | -99.40008 | 33812 ft | 388 kts | 278° |
| 2026-05-05 04:15 | 30.55287 | -99.46203 | 33834 ft | 388 kts | 278° |
| 2026-05-05 04:16 | 30.56086 | -99.52435 | 33855 ft | 392 kts | 278° |
| 2026-05-05 04:16 | 30.56883 | -99.58698 | 33870 ft | 392 kts | 278° |
| 2026-05-05 04:17 | 30.57678 | -99.64950 | 33888 ft | 392 kts | 278° |
| 2026-05-05 04:17 | 30.58470 | -99.71207 | 33900 ft | 392 kts | 278° |
| 2026-05-05 04:18 | 30.59257 | -99.77462 | 33913 ft | 391 kts | 278° |
| 2026-05-05 04:18 | 30.60038 | -99.83694 | 33894 ft | 389 kts | 278° |
| 2026-05-05 04:19 | 30.60810 | -99.89912 | 33873 ft | 390 kts | 278° |
| 2026-05-05 04:19 | 30.61581 | -99.96139 | 33852 ft | 390 kts | 278° |
| 2026-05-05 04:20 | 30.62349 | -100.02370 | 33836 ft | 390 kts | 278° |
| 2026-05-05 04:20 | 30.63115 | -100.08603 | 33822 ft | 390 kts | 278° |
| 2026-05-05 04:21 | 30.63876 | -100.14826 | 33805 ft | 390 kts | 278° |
| 2026-05-05 04:21 | 30.64634 | -100.21064 | 33784 ft | 390 kts | 278° |
| 2026-05-05 04:22 | 30.65389 | -100.27288 | 33801 ft | 389 kts | 278° |
| 2026-05-05 04:22 | 30.66141 | -100.33503 | 33844 ft | 389 kts | 278° |
| 2026-05-05 04:23 | 30.66889 | -100.39727 | 33872 ft | 389 kts | 278° |
| 2026-05-05 04:23 | 30.67629 | -100.45912 | 33896 ft | 389 kts | 278° |
| 2026-05-05 04:24 | 30.68236 | -100.51004 | 33914 ft | 389 kts | 278° |